Main page
METAR-TAF:

METAR-TAF

Airports :

Minorca, Spain

Menorca Airport

latitude: 39-52N, longitude: 004-14E, elevation: 87 m

Current weather observation

The report was made 33 minutes ago, at 01:30 UTC
Wind 6 kt from the East/Northeast
Temperature 18°C
Humidity 83%
Pressure 1017 hPa
Visibility 10 km or more

METAR: LEMH 290130Z AUTO 06006KT 9999 NCD 18/15 Q1017

Time: 04:03 (02:03 UTC)

Forecast

The report was made 6 hours and 3 minutes ago, at 20:00 UTC
Forecast valid from 28 at 21 UTC to 29 at 21 UTC
Wind 10 kt from the East/Northeast
Visibility 10 km or more
Few clouds at a height of 1500 ft
Probability 30% :
Temporary
from 28 at 21 UTC to 29 at 06 UTC
Broken clouds at a height of 500 ft

TAF: LEMH 282000Z 2821/2921 06010KT 9999 FEW015 TX27/2912Z TN18/2906Z PROB30 TEMPO 2821/2906 BKN005

Weather observations and forecasts of more than 4000 airports (METAR and TAF reports).

The available stations are represented by yellow and red dots on the map.

Hover mouse over dot to see the name of the station.

Then click to see weather observations and forecasts.

To change the map : click on the green buttons with a black cross to zoom in, on the green button with a dash to zoom out, or on the green arrows for adjacent maps.


METAR-TAF: